createdAt,value
2023-04-18T00:01:38.823Z,102246.28
2023-04-18T00:04:08.533Z,102252.50
2023-04-18T00:06:37.814Z,102256.91
2023-04-18T00:09:06.795Z,102253.31
2023-04-18T00:11:35.984Z,102256.94
2023-04-18T00:14:06.317Z,102251.59
2023-04-18T00:16:36.251Z,102254.25
2023-04-18T00:19:08.763Z,102255.13
2023-04-18T00:21:38.191Z,102255.13
2023-04-18T00:24:07.202Z,102258.75
2023-04-18T00:26:36.371Z,102257.00
2023-04-18T00:29:05.142Z,102257.88
2023-04-18T00:31:34.242Z,102257.84
2023-04-18T00:34:03.277Z,102261.41
2023-04-18T00:36:33.816Z,102258.66
2023-04-18T00:39:03.235Z,102252.50
2023-04-18T00:41:32.277Z,102252.50
2023-04-18T00:44:01.133Z,102248.94
2023-04-18T00:46:30.229Z,102256.09
2023-04-18T00:48:59.691Z,102259.66
2023-04-18T00:51:29.081Z,102262.28
2023-04-18T00:53:59.753Z,102253.44
2023-04-18T00:56:28.926Z,102256.13
2023-04-18T00:59:00.408Z,102257.00
2023-04-18T01:01:29.557Z,102256.09
2023-04-18T01:03:58.563Z,102260.53
2023-04-18T01:06:28.331Z,102269.44
2023-04-18T01:08:57.492Z,102271.22
2023-04-18T01:11:28.683Z,102268.56
2023-04-18T01:14:01.622Z,102266.81
2023-04-18T01:16:32.691Z,102266.81
2023-04-18T01:19:01.739Z,102259.69
2023-04-18T01:21:31.496Z,102264.13
2023-04-18T01:24:01.904Z,102265.03
2023-04-18T01:26:32.395Z,102263.25
2023-04-18T01:29:01.321Z,102269.47
2023-04-18T01:31:34.845Z,102272.09
2023-04-18T01:34:03.780Z,102263.22
2023-04-18T01:36:33.097Z,102255.22
2023-04-18T01:39:02.214Z,102256.03
2023-04-18T01:41:33.409Z,102258.66
2023-04-18T01:44:02.410Z,102256.97
2023-04-18T01:46:31.923Z,102249.84
2023-04-18T01:49:03.288Z,102252.56
2023-04-18T01:51:32.476Z,102253.38
2023-04-18T01:54:01.358Z,102256.00
2023-04-18T01:56:31.981Z,102254.28
2023-04-18T01:59:01.696Z,102251.56
2023-04-18T02:01:30.903Z,102251.63
2023-04-18T02:04:01.048Z,102248.06
2023-04-18T02:06:30.909Z,102251.63
2023-04-18T02:09:01.763Z,102246.31
2023-04-18T02:11:32.473Z,102238.25
2023-04-18T02:14:01.484Z,102240.06
2023-04-18T02:16:30.844Z,102235.59
2023-04-18T02:19:00.285Z,102239.09
2023-04-18T02:21:30.305Z,102236.47
2023-04-18T02:23:59.389Z,102226.69
2023-04-18T02:26:28.509Z,102233.88
2023-04-18T02:29:01.054Z,102232.09
2023-04-18T02:31:32.165Z,102237.44
2023-04-18T02:34:01.160Z,102235.63
2023-04-18T02:36:31.141Z,102232.06
2023-04-18T02:39:00.141Z,102233.88
2023-04-18T02:41:29.218Z,102232.97
2023-04-18T02:43:58.203Z,102232.09
2023-04-18T02:46:28.945Z,102238.31
2023-04-18T02:48:58.196Z,102231.19
2023-04-18T02:51:28.122Z,102238.31
2023-04-18T02:53:59.315Z,102238.31
2023-04-18T02:56:39.898Z,102233.00
2023-04-18T02:59:18.011Z,102240.09
2023-04-18T03:02:11.600Z,102243.63
2023-04-18T03:04:47.534Z,102244.50
2023-04-18T03:07:17.168Z,102240.00
2023-04-18T03:09:46.321Z,102242.69
2023-04-18T03:12:26.328Z,102238.25
2023-04-18T03:14:55.856Z,102240.91
2023-04-18T03:17:26.553Z,102247.97
2023-04-18T03:19:55.838Z,102252.41
2023-04-18T03:22:25.920Z,102247.97
2023-04-18T03:25:00.118Z,102245.31
2023-04-18T03:27:43.782Z,102247.13
2023-04-18T03:30:15.145Z,102248.91
2023-04-18T03:32:49.086Z,102247.03
2023-04-18T03:35:18.385Z,102253.28
2023-04-18T03:37:47.437Z,102247.97
2023-04-18T03:40:24.251Z,102245.19
2023-04-18T03:42:56.598Z,102247.84
2023-04-18T03:45:26.077Z,102253.22
2023-04-18T03:47:56.833Z,102251.47
2023-04-18T03:50:26.760Z,102253.31
2023-04-18T03:52:58.216Z,102252.44
2023-04-18T03:55:27.481Z,102263.09
2023-04-18T03:57:58.451Z,102258.69
2023-04-18T04:00:30.994Z,102259.47
2023-04-18T04:03:08.082Z,102256.75
2023-04-18T04:05:37.205Z,102262.19
2023-04-18T04:08:07.597Z,102263.09
2023-04-18T04:10:36.856Z,102266.66
2023-04-18T04:13:06.089Z,102265.78
2023-04-18T04:15:38.480Z,102276.41
2023-04-18T04:18:10.961Z,102271.09
2023-04-18T04:20:43.685Z,102279.06
2023-04-18T04:23:17.700Z,102278.13
2023-04-18T04:25:49.229Z,102279.94
2023-04-18T04:28:33.737Z,102290.59
2023-04-18T04:31:10.338Z,102280.81
2023-04-18T04:33:42.719Z,102280.81
2023-04-18T04:36:19.077Z,102279.84
2023-04-18T04:38:52.338Z,102288.75
2023-04-18T04:41:27.824Z,102286.13
2023-04-18T04:43:57.165Z,102277.09
2023-04-18T04:46:30.808Z,102284.22
2023-04-18T04:49:03.340Z,102283.34
2023-04-18T04:51:32.519Z,102280.69
2023-04-18T04:54:02.132Z,102274.47
2023-04-18T04:56:31.282Z,102285.06
2023-04-18T04:59:01.056Z,102280.69
2023-04-18T05:01:37.789Z,102290.44
2023-04-18T05:04:08.521Z,102291.31
2023-04-18T05:06:40.157Z,102294.81
2023-04-18T05:09:10.094Z,102294.75
2023-04-18T05:11:39.039Z,102300.06
2023-04-18T05:14:08.431Z,102288.44
2023-04-18T05:16:37.468Z,102290.22
2023-04-18T05:19:08.035Z,102290.22
2023-04-18T05:21:37.325Z,102290.13
2023-04-18T05:24:07.667Z,102290.97
2023-04-18T05:26:36.862Z,102294.47
2023-04-18T05:29:05.942Z,102295.34
2023-04-18T05:31:34.925Z,102297.09
2023-04-18T05:34:04.259Z,102295.25
2023-04-18T05:36:34.561Z,102290.84
2023-04-18T05:39:04.220Z,102285.34
2023-04-18T05:41:33.183Z,102288.91
2023-04-18T05:44:05.704Z,102290.63
2023-04-18T05:46:35.081Z,102284.31
2023-04-18T05:49:04.617Z,102286.84
2023-04-18T05:51:35.035Z,102291.16
2023-04-18T05:54:04.503Z,102285.78
2023-04-18T05:56:33.307Z,102295.53
2023-04-18T05:59:02.516Z,102294.63
2023-04-18T06:01:32.615Z,102298.16
2023-04-18T06:04:02.094Z,102302.53
2023-04-18T06:06:31.503Z,102296.31
2023-04-18T06:09:02.042Z,102291.75
2023-04-18T06:11:33.541Z,102290.78
2023-04-18T06:14:02.934Z,102290.91
2023-04-18T06:16:31.753Z,102306.09
2023-04-18T06:19:02.463Z,102295.41
2023-04-18T06:21:31.676Z,102289.91
2023-04-18T06:24:02.478Z,102299.66
2023-04-18T06:26:32.283Z,102296.06
2023-04-18T06:29:01.574Z,102301.44
2023-04-18T06:31:32.998Z,102305.84
2023-04-18T06:34:11.825Z,102302.19
2023-04-18T06:36:41.192Z,102302.00
2023-04-18T06:39:11.740Z,102298.38
2023-04-18T06:41:40.960Z,102304.66
2023-04-18T06:44:10.007Z,102297.34
2023-04-18T06:46:39.193Z,102308.72
2023-04-18T06:49:08.528Z,102305.91
2023-04-18T06:51:37.359Z,102314.78
2023-04-18T06:54:06.512Z,102314.53
2023-04-18T06:56:36.998Z,102317.03
2023-04-18T06:59:06.064Z,102323.06
2023-04-18T07:01:35.041Z,102314.84
2023-04-18T07:04:04.331Z,102325.28
2023-04-18T07:06:33.727Z,102323.34
2023-04-18T07:09:02.860Z,102324.91
2023-04-18T07:11:32.191Z,102326.44
2023-04-18T07:14:02.595Z,102319.94
2023-04-18T07:16:31.483Z,102316.16
2023-04-18T07:19:00.970Z,102323.91
2023-04-18T07:21:30.161Z,102319.25
2023-04-18T07:23:59.239Z,102324.53
2023-04-18T07:26:28.417Z,102335.22
2023-04-18T07:28:57.630Z,102325.38
2023-04-18T07:31:28.652Z,102326.31
2023-04-18T07:33:58.392Z,102323.59
2023-04-18T07:36:28.742Z,102323.53
2023-04-18T07:38:58.946Z,102329.72
2023-04-18T07:41:27.842Z,102332.44
2023-04-18T07:43:57.131Z,102327.97
2023-04-18T07:46:27.612Z,102336.84
2023-04-18T07:48:56.809Z,102335.13
2023-04-18T07:51:31.349Z,102328.69
2023-04-18T07:54:00.773Z,102335.69
2023-04-18T07:56:29.852Z,102339.22
2023-04-18T07:59:04.939Z,102340.09
2023-04-18T08:01:35.462Z,102335.53
2023-04-18T08:04:04.885Z,102338.22
2023-04-18T08:06:34.697Z,102344.59
2023-04-18T08:09:05.804Z,102342.88
2023-04-18T08:11:36.507Z,102334.94
2023-04-18T08:14:05.708Z,102340.16
2023-04-18T08:16:36.035Z,102344.66
2023-04-18T08:19:05.465Z,102343.03
2023-04-18T08:21:34.272Z,102346.47
2023-04-18T08:24:03.481Z,102351.72
2023-04-18T08:26:32.265Z,102355.41
2023-04-18T08:29:01.488Z,102354.41
2023-04-18T08:31:31.748Z,102350.53
2023-04-18T08:34:04.502Z,102344.28
2023-04-18T08:36:34.067Z,102346.97
2023-04-18T08:39:03.652Z,102344.25
2023-04-18T08:41:37.093Z,102346.88
2023-04-18T08:44:07.527Z,102343.03
2023-04-18T08:46:37.214Z,102356.28
2023-04-18T08:49:08.521Z,102350.06
2023-04-18T08:51:41.656Z,102367.00
2023-04-18T08:54:12.400Z,102359.84
2023-04-18T08:56:42.250Z,102363.53
2023-04-18T08:59:11.802Z,102363.44
2023-04-18T09:01:56.616Z,102360.59
2023-04-18T09:04:37.462Z,102355.03
2023-04-18T09:07:07.130Z,102364.75
2023-04-18T09:09:46.693Z,102368.28
2023-04-18T09:12:18.396Z,102358.38
2023-04-18T09:14:50.320Z,102355.63
2023-04-18T09:17:32.390Z,102356.50
2023-04-18T09:20:05.237Z,102356.31
2023-04-18T09:22:50.503Z,102360.63
2023-04-18T09:25:27.436Z,102372.00
2023-04-18T09:27:57.390Z,102361.19
2023-04-18T09:30:34.311Z,102365.66
2023-04-18T09:33:04.368Z,102356.53
2023-04-18T09:35:36.017Z,102360.91
2023-04-18T09:38:04.962Z,102359.91
2023-04-18T09:40:34.285Z,102348.03
2023-04-18T09:43:17.945Z,102361.34
2023-04-18T09:45:48.170Z,102344.38
2023-04-18T09:48:17.242Z,102357.84
2023-04-18T09:50:48.772Z,102348.75
2023-04-18T09:53:20.923Z,102347.91
2023-04-18T09:55:51.235Z,102357.72
2023-04-18T09:58:22.354Z,102345.22
2023-04-18T10:00:52.551Z,102346.13
2023-04-18T10:03:24.930Z,102341.53
2023-04-18T10:05:57.747Z,102341.41
2023-04-18T10:08:27.568Z,102340.63
2023-04-18T10:10:58.712Z,102334.19
2023-04-18T10:13:27.828Z,102339.66
2023-04-18T10:15:57.646Z,102341.22
2023-04-18T10:18:26.609Z,102350.00
2023-04-18T10:21:04.399Z,102341.97
2023-04-18T10:23:37.111Z,102347.50
2023-04-18T10:26:06.770Z,102340.09
2023-04-18T10:28:53.298Z,102337.34
2023-04-18T10:31:23.815Z,102339.78
2023-04-18T10:34:03.752Z,102335.19
2023-04-18T10:36:36.178Z,102336.91
2023-04-18T10:39:21.577Z,102334.28
2023-04-18T10:41:51.516Z,102332.50
2023-04-18T10:44:22.634Z,102330.75
2023-04-18T10:47:11.564Z,102329.91
2023-04-18T10:49:40.578Z,102338.75
2023-04-18T10:54:43.019Z,102329.91
2023-04-18T10:57:13.216Z,102322.75
2023-04-18T10:59:43.031Z,102328.06
2023-04-18T11:02:20.272Z,102330.69
2023-04-18T11:04:51.019Z,102321.66
2023-04-18T11:07:21.879Z,102320.53
2023-04-18T11:09:54.490Z,102316.97
2023-04-18T11:12:23.923Z,102317.84
2023-04-18T11:14:54.409Z,102323.53
2023-04-18T11:17:24.214Z,102325.44
2023-04-18T11:20:00.529Z,102314.59
2023-04-18T11:22:31.230Z,102319.03
2023-04-18T11:25:00.611Z,102309.06
2023-04-18T11:27:30.716Z,102310.91
2023-04-18T11:29:59.640Z,102307.63
2023-04-18T11:32:28.845Z,102305.13
2023-04-18T11:34:59.028Z,102292.53
2023-04-18T11:37:34.973Z,102303.16
2023-04-18T11:40:05.894Z,102304.31
2023-04-18T11:42:35.705Z,102299.25
2023-04-18T11:45:04.881Z,102300.97
2023-04-18T11:47:36.305Z,102297.25
2023-04-18T11:50:06.743Z,102296.22
2023-04-18T11:52:38.916Z,102300.63
2023-04-18T11:55:14.976Z,102304.88
2023-04-18T11:57:50.785Z,102298.38
2023-04-18T12:00:21.671Z,102302.00
2023-04-18T12:02:51.971Z,102293.78
2023-04-18T12:05:30.804Z,102296.31
2023-04-18T12:08:08.221Z,102295.41
2023-04-18T12:10:37.182Z,102290.53
2023-04-18T12:13:08.324Z,102287.75
2023-04-18T12:15:39.526Z,102286.72
2023-04-18T12:18:09.563Z,102281.09
2023-04-18T12:20:39.296Z,102289.81
2023-04-18T12:23:09.976Z,102286.03
2023-04-18T12:25:39.131Z,102269.84
2023-04-18T12:28:15.540Z,102277.63
2023-04-18T12:30:44.724Z,102281.09
2023-04-18T12:33:13.906Z,102284.53
2023-04-18T12:35:42.666Z,102274.44
2023-04-18T12:38:13.139Z,102281.75
2023-04-18T12:40:42.112Z,102272.66
2023-04-18T12:43:11.314Z,102266.28
2023-04-18T12:45:40.175Z,102277.75
2023-04-18T12:48:09.525Z,102272.41
2023-04-18T12:50:38.513Z,102270.50
2023-04-18T12:53:07.558Z,102270.44
2023-04-18T12:55:38.039Z,102266.88
2023-04-18T12:58:07.263Z,102271.31
2023-04-18T13:00:36.220Z,102271.09
2023-04-18T13:03:06.342Z,102258.31
2023-04-18T13:05:35.528Z,102265.50
2023-04-18T13:08:16.151Z,102264.44
2023-04-18T13:10:48.477Z,102256.34
2023-04-18T13:13:18.087Z,102251.50
2023-04-18T13:15:47.011Z,102251.25
2023-04-18T13:18:16.221Z,102255.69
2023-04-18T13:20:45.003Z,102264.72
2023-04-18T13:23:15.020Z,102255.69
2023-04-18T13:25:44.066Z,102250.44
2023-04-18T13:28:14.524Z,102257.16
2023-04-18T13:30:43.552Z,102258.13
2023-04-18T13:33:13.225Z,102255.47
2023-04-18T13:35:42.252Z,102251.75
2023-04-18T13:38:12.243Z,102255.09
2023-04-18T13:40:41.205Z,102259.50
2023-04-18T13:43:11.108Z,102266.03
2023-04-18T13:45:42.077Z,102270.66
2023-04-18T13:48:12.205Z,102265.19
2023-04-18T13:50:42.814Z,102255.59
2023-04-18T13:53:11.891Z,102270.00
2023-04-18T13:55:40.738Z,102265.63
2023-04-18T13:58:10.040Z,102270.22
2023-04-18T14:00:39.181Z,102269.13
2023-04-18T14:03:09.768Z,102261.75
2023-04-18T14:05:38.877Z,102264.22
2023-04-18T14:08:08.781Z,102264.97
2023-04-18T14:10:38.078Z,102261.53
2023-04-18T14:13:07.310Z,102259.13
2023-04-18T14:15:37.550Z,102256.91
2023-04-18T14:18:06.926Z,102260.41
2023-04-18T14:20:37.306Z,102252.09
2023-04-18T14:23:06.462Z,102255.75
2023-04-18T14:25:35.303Z,102249.63
2023-04-18T14:28:05.338Z,102254.84
2023-04-18T14:30:34.246Z,102262.34
2023-04-18T14:33:03.856Z,102256.41
2023-04-18T14:35:32.711Z,102253.03
2023-04-18T14:38:03.317Z,102253.13
2023-04-18T14:40:32.837Z,102252.75
2023-04-18T14:43:02.224Z,102250.44
2023-04-18T14:45:33.583Z,102267.69
2023-04-18T14:48:02.893Z,102251.19
2023-04-18T14:50:32.012Z,102245.19
2023-04-18T14:53:01.376Z,102248.28
2023-04-18T14:55:31.642Z,102253.16
2023-04-18T14:58:00.912Z,102238.38
2023-04-18T15:00:31.795Z,102239.47
2023-04-18T15:03:01.453Z,102234.06
2023-04-18T15:05:30.449Z,102240.31
2023-04-18T15:07:59.757Z,102252.06
2023-04-18T15:10:28.856Z,102244.13
2023-04-18T15:12:59.460Z,102244.00
2023-04-18T15:15:28.433Z,102245.03
2023-04-18T15:17:58.308Z,102241.44
2023-04-18T15:20:29.025Z,102239.66
2023-04-18T15:22:58.410Z,102229.38
2023-04-18T15:25:28.297Z,102239.19
2023-04-18T15:27:58.245Z,102237.06
2023-04-18T15:30:28.640Z,102228.75
2023-04-18T15:32:58.682Z,102238.41
2023-04-18T15:35:27.731Z,102238.41
2023-04-18T15:37:57.718Z,102232.75
2023-04-18T15:40:27.854Z,102238.28
2023-04-18T15:42:58.055Z,102234.88
2023-04-18T15:45:28.509Z,102238.28
2023-04-18T15:47:57.884Z,102232.97
2023-04-18T15:50:26.848Z,102229.25
2023-04-18T15:52:57.557Z,102238.66
2023-04-18T15:55:26.420Z,102246.09
2023-04-18T15:57:56.319Z,102241.81
2023-04-18T16:00:27.682Z,102248.28
2023-04-18T16:02:58.516Z,102243.03
2023-04-18T16:05:27.621Z,102242.97
2023-04-18T16:07:58.155Z,102245.84
2023-04-18T16:10:27.211Z,102243.63
2023-04-18T16:12:56.290Z,102243.34
2023-04-18T16:15:26.984Z,102242.25
2023-04-18T16:17:56.343Z,102247.09
2023-04-18T16:20:27.375Z,102238.47
2023-04-18T16:22:56.574Z,102238.16
2023-04-18T16:25:25.498Z,102239.28
2023-04-18T16:27:57.075Z,102244.19
2023-04-18T16:30:25.950Z,102239.91
2023-04-18T16:32:55.492Z,102237.47
2023-04-18T16:35:24.605Z,102232.75
2023-04-18T16:37:56.496Z,102237.31
2023-04-18T16:40:30.406Z,102240.28
2023-04-18T16:43:00.274Z,102231.63
2023-04-18T16:45:29.299Z,102234.34
2023-04-18T16:47:59.214Z,102240.75
2023-04-18T16:50:28.056Z,102231.91
2023-04-18T16:52:58.893Z,102230.22
2023-04-18T16:55:27.807Z,102225.91
2023-04-18T16:57:56.917Z,102220.56
2023-04-18T17:00:25.784Z,102224.31
2023-04-18T17:02:55.906Z,102234.31
2023-04-18T17:05:25.953Z,102238.03
2023-04-18T17:07:56.100Z,102241.72
2023-04-18T17:10:26.535Z,102241.84
2023-04-18T17:12:55.850Z,102234.09
2023-04-18T17:15:24.636Z,102241.28
2023-04-18T17:17:56.514Z,102249.53
2023-04-18T17:20:25.586Z,102248.56
2023-04-18T17:22:54.708Z,102247.78
2023-04-18T17:25:23.473Z,102244.38
2023-04-18T17:27:53.949Z,102248.88
2023-04-18T17:30:23.396Z,102249.03
2023-04-18T17:32:52.797Z,102253.50
2023-04-18T17:35:23.342Z,102247.34
2023-04-18T17:37:52.937Z,102255.75
2023-04-18T17:40:21.870Z,102257.59
2023-04-18T17:42:50.970Z,102255.84
2023-04-18T17:45:21.362Z,102262.19
2023-04-18T17:47:51.080Z,102264.28
2023-04-18T17:50:21.218Z,102265.22
2023-04-18T17:52:50.562Z,102259.94
2023-04-18T17:55:19.885Z,102248.50
2023-04-18T17:57:48.981Z,102260.22
2023-04-18T18:00:18.066Z,102261.22
2023-04-18T18:02:48.613Z,102260.41
2023-04-18T18:05:17.637Z,102255.13
2023-04-18T18:07:48.464Z,102258.75
2023-04-18T18:10:20.163Z,102259.75
2023-04-18T18:12:49.811Z,102251.72
2023-04-18T18:15:18.994Z,102260.69
2023-04-18T18:17:50.735Z,102248.28
2023-04-18T18:20:19.892Z,102257.38
2023-04-18T18:22:49.365Z,102254.84
2023-04-18T18:25:20.761Z,102259.25
2023-04-18T18:27:51.609Z,102252.16
2023-04-18T18:30:20.627Z,102244.22
2023-04-18T18:32:54.656Z,102252.22
2023-04-18T18:35:23.681Z,102259.41
2023-04-18T18:37:52.730Z,102247.03
2023-04-18T18:40:21.960Z,102244.31
2023-04-18T18:42:53.831Z,102245.31
2023-04-18T18:45:23.084Z,102255.13
2023-04-18T18:47:53.725Z,102248.91
2023-04-18T18:50:23.371Z,102247.13
2023-04-18T18:52:52.829Z,102248.97
2023-04-18T18:55:22.912Z,102249.03
2023-04-18T18:57:52.561Z,102251.66
2023-04-18T19:00:21.482Z,102245.50
2023-04-18T19:02:54.543Z,102250.88
2023-04-18T19:05:23.705Z,102243.78
2023-04-18T19:07:52.787Z,102250.91
2023-04-18T19:10:21.966Z,102244.72
2023-04-18T19:12:51.598Z,102248.34
2023-04-18T19:15:20.378Z,102232.38
2023-04-18T19:17:49.594Z,102233.28
2023-04-18T19:20:20.386Z,102230.69
2023-04-18T19:22:49.694Z,102228.06
2023-04-18T19:25:18.450Z,102230.72
2023-04-18T19:27:49.472Z,102236.94
2023-04-18T19:30:20.883Z,102228.97
2023-04-18T19:32:50.218Z,102224.53
2023-04-18T19:35:20.441Z,102229.00
2023-04-18T19:37:49.717Z,102225.47
2023-04-18T19:40:18.588Z,102234.38
2023-04-18T19:42:47.795Z,102223.69
2023-04-18T19:45:16.747Z,102227.25
2023-04-18T19:47:47.871Z,102221.09
2023-04-18T19:50:16.781Z,102221.97
2023-04-18T19:52:47.373Z,102206.03
2023-04-18T19:55:17.554Z,102212.25
2023-04-18T19:57:46.811Z,102202.50
2023-04-18T20:00:16.456Z,102202.53
2023-04-18T20:02:45.617Z,102193.63
2023-04-18T20:05:14.981Z,102193.66
2023-04-18T20:07:44.466Z,102191.00
2023-04-18T20:10:14.807Z,102191.03
2023-04-18T20:12:44.087Z,102179.50
2023-04-18T20:15:13.157Z,102183.06
2023-04-18T20:17:42.376Z,102182.16
2023-04-18T20:20:11.979Z,102180.41
2023-04-18T20:22:43.063Z,102183.06
2023-04-18T20:25:13.079Z,102173.31
2023-04-18T20:27:45.646Z,102174.19
2023-04-18T20:30:14.944Z,102163.56
2023-04-18T20:32:44.051Z,102159.16
2023-04-18T20:35:13.509Z,102152.06
2023-04-18T20:37:42.623Z,102149.41
2023-04-18T20:40:11.606Z,102148.56
2023-04-18T20:42:41.149Z,102141.47
2023-04-18T20:45:11.983Z,102145.00
2023-04-18T20:47:42.342Z,102132.63
2023-04-18T20:50:14.020Z,102126.41
2023-04-18T20:52:43.951Z,102126.41
2023-04-18T20:55:13.115Z,102121.09
2023-04-18T20:57:42.185Z,102120.22
2023-04-18T21:00:14.737Z,102110.47
2023-04-18T21:02:44.927Z,102105.16
2023-04-18T21:05:14.027Z,102100.75
2023-04-18T21:07:44.102Z,102078.59
2023-04-18T21:10:14.526Z,102098.09
2023-04-18T21:12:43.626Z,102091.91
2023-04-18T21:15:14.217Z,102095.41
2023-04-18T21:17:43.419Z,102085.72
2023-04-18T21:20:12.386Z,102085.69
2023-04-18T21:22:42.332Z,102083.94
2023-04-18T21:25:11.906Z,102080.38
2023-04-18T21:27:40.975Z,102068.00
2023-04-18T21:30:09.932Z,102060.03
2023-04-18T21:32:40.532Z,102049.41
2023-04-18T21:35:10.107Z,102057.38
2023-04-18T21:37:39.411Z,102052.03
2023-04-18T21:40:08.853Z,102051.16
2023-04-18T21:42:38.291Z,102048.47
2023-04-18T21:45:07.912Z,102051.16
2023-04-18T21:47:37.133Z,102053.78
2023-04-18T21:50:08.126Z,102050.25
2023-04-18T21:52:37.408Z,102037.88
2023-04-18T21:55:06.671Z,102040.53
2023-04-18T21:57:36.307Z,102037.84
2023-04-18T22:00:07.310Z,102030.78
2023-04-18T22:02:38.803Z,102035.19
2023-04-18T22:05:09.273Z,102024.59
2023-04-18T22:07:50.089Z,102029.91
2023-04-18T22:10:26.151Z,102015.75
2023-04-18T22:12:56.043Z,102019.31
2023-04-18T22:15:27.053Z,102010.44
2023-04-18T22:17:56.520Z,102006.91
2023-04-18T22:20:27.040Z,101995.41
2023-04-18T22:22:56.642Z,101997.19
2023-04-18T22:25:25.480Z,101987.44
2023-04-18T22:27:54.701Z,101990.09
2023-04-18T22:30:23.478Z,101980.38
2023-04-18T22:32:52.737Z,101975.97
2023-04-18T22:35:21.549Z,101978.59
2023-04-18T22:37:52.030Z,101978.63
2023-04-18T22:40:21.053Z,101968.91
2023-04-18T22:42:51.879Z,101960.03
2023-04-18T22:45:20.877Z,101960.06
2023-04-18T22:47:50.251Z,101956.50
2023-04-18T22:50:19.077Z,101954.75
2023-04-18T22:52:48.342Z,101951.19
2023-04-18T22:55:19.953Z,101949.44
2023-04-18T22:57:49.146Z,101938.81
2023-04-18T23:00:17.994Z,101945.91
2023-04-18T23:02:47.713Z,101944.13
2023-04-18T23:05:16.849Z,101940.59
2023-04-18T23:07:46.125Z,101924.69
2023-04-18T23:10:14.888Z,101930.88
2023-04-18T23:12:45.553Z,101917.63
2023-04-18T23:15:14.405Z,101912.31
2023-04-18T23:17:43.607Z,101909.66
2023-04-18T23:20:13.826Z,101908.78
2023-04-18T23:22:43.010Z,101899.03
2023-04-18T23:25:11.847Z,101893.72
2023-04-18T23:27:41.191Z,101891.09
2023-04-18T23:30:11.987Z,101870.78
2023-04-18T23:32:41.166Z,101880.47
2023-04-18T23:35:10.579Z,101888.44
2023-04-18T23:37:39.880Z,101884.00
2023-04-18T23:40:09.428Z,101877.81
2023-04-18T23:42:38.621Z,101888.41
2023-04-18T23:45:07.734Z,101875.16
2023-04-18T23:47:38.375Z,101891.06
2023-04-18T23:50:07.980Z,101878.66
2023-04-18T23:52:38.195Z,101889.28
2023-04-18T23:55:07.574Z,101877.78
2023-04-18T23:57:36.658Z,101870.72
